Terminal Aerodrome Forecast
Issued by NWS Twin Cities, MN

Home | Current Version | Previous Version | Text Only | Print | Product List | Glossary Off
Versions: 1 2 3 4 5 6 7 8 9 10 11 12 13 14 15

817
FTUS43 KMPX 242359
TAFSTC
TAF
KSTC 242359Z 2500/2524 28010KT P6SM OVC250
     FM250600 26004KT P6SM SCT250
     FM251300 27007KT P6SM FEW250
     FM251600 28013G20KT P6SM SCT060 BKN100
     FM252200 30011KT P6SM SCT070=

USA.gov is the U.S. government's official web portal to all federal, state and local government web resources and services.